Time;durP1;ratioP1;P1;durP2;ratioP2;P2;SDS_P1;SDS_P2;PMS_P1;PMS_P2;Temp;Humidity;BMP_temperature;BMP_pressure;BME280_temperature;BME280_humidity;BME280_pressure;Samples;Min_cycle;Max_cycle;Signal;HPM_P1;HPM_P2
2023/07/30 00:00:21;;;;;;;;;1.00;1.00;;;;;;;;5054981;28;8961;-87
2023/07/30 00:02:48;;;;;;;;;0.25;0.25;;;;;;;;5058076;28;8869;-86
2023/07/30 00:05:16;;;;;;;;;0.25;0.25;;;;;;;;5058653;28;8846;-85
2023/07/30 00:07:43;;;;;;;;;1.00;1.00;;;;;;;;5056231;28;8936;-86
2023/07/30 00:10:11;;;;;;;;;1.50;0.50;;;;;;;;5053545;28;8997;-85
2023/07/30 00:12:40;;;;;;;;;0.00;0.00;;;;;;;;5052557;28;8863;-83
2023/07/30 00:15:08;;;;;;;;;1.00;1.00;;;;;;;;5050732;28;8863;-83
2023/07/30 00:17:35;;;;;;;;;1.00;1.00;;;;;;;;5050866;28;8851;-83
2023/07/30 00:20:03;;;;;;;;;2.00;2.00;;;;;;;;5050674;28;8962;-83
2023/07/30 00:22:31;;;;;;;;;1.00;1.00;;;;;;;;5051024;28;8859;-84
2023/07/30 00:24:58;;;;;;;;;2.00;2.00;;;;;;;;5050810;28;8865;-85
2023/07/30 00:27:25;;;;;;;;;2.00;1.75;;;;;;;;5050679;28;8894;-85
2023/07/30 00:29:54;;;;;;;;;1.00;1.00;;;;;;;;5050719;28;8997;-86
2023/07/30 00:32:21;;;;;;;;;1.75;1.75;;;;;;;;5050499;28;8807;-85
2023/07/30 00:34:48;;;;;;;;;3.00;1.50;;;;;;;;5050845;28;8894;-86
2023/07/30 00:37:15;;;;;;;;;2.00;2.00;;;;;;;;5055130;28;8970;-84
2023/07/30 00:39:43;;;;;;;;;1.50;0.00;;;;;;;;5055738;28;8989;-86
2023/07/30 00:42:10;;;;;;;;;1.00;1.00;;;;;;;;5054569;28;8855;-85
2023/07/30 00:44:37;;;;;;;;;1.00;1.00;;;;;;;;5053033;28;8847;-86
2023/07/30 00:47:06;;;;;;;;;6.00;1.00;;;;;;;;5050508;28;8855;-87
2023/07/30 00:49:34;;;;;;;;;1.00;1.00;;;;;;;;5050711;28;8970;-83
2023/07/30 00:52:01;;;;;;;;;1.25;1.25;;;;;;;;5051006;28;8859;-88
2023/07/30 00:54:29;;;;;;;;;0.25;0.25;;;;;;;;5050608;28;8993;-89
2023/07/30 00:56:56;;;;;;;;;1.25;0.75;;;;;;;;5050544;28;8859;-90
2023/07/30 00:59:23;;;;;;;;;0.25;0.25;;;;;;;;5050656;28;8857;-85
2023/07/30 01:01:52;;;;;;;;;0.75;0.75;;;;;;;;5051444;28;8771;-88
2023/07/30 01:04:20;;;;;;;;;0.00;0.00;;;;;;;;5052705;28;8877;-89
2023/07/30 01:06:48;;;;;;;;;0.75;0.75;;;;;;;;5052455;28;8882;-88
2023/07/30 01:09:15;;;;;;;;;1.50;0.00;;;;;;;;5053398;28;8880;-91
2023/07/30 01:11:43;;;;;;;;;1.25;0.75;;;;;;;;5051216;28;8839;-88
2023/07/30 01:14:11;;;;;;;;;2.50;1.50;;;;;;;;5053431;28;8946;-86
2023/07/30 01:16:38;;;;;;;;;0.75;0.75;;;;;;;;5058003;28;8851;-88
2023/07/30 01:19:07;;;;;;;;;1.25;1.25;;;;;;;;5057110;28;8989;-84
2023/07/30 01:21:36;;;;;;;;;0.25;0.25;;;;;;;;5055990;28;8934;-88
2023/07/30 01:24:04;;;;;;;;;3.75;2.75;;;;;;;;5051151;28;8863;-88
2023/07/30 01:26:36;;;;;;;;;2.00;2.00;;;;;;;;5050977;28;8993;-89
2023/07/30 01:29:05;;;;;;;;;1.00;1.00;;;;;;;;5050613;28;9738;-89
2023/07/30 01:31:34;;;;;;;;;0.75;0.75;;;;;;;;5050336;28;8795;-90
2023/07/30 01:34:07;;;;;;;;;1.00;1.00;;;;;;;;5050811;28;8863;-89
2023/07/30 01:36:37;;;;;;;;;1.00;1.00;;;;;;;;5051929;28;8936;-88
2023/07/30 01:39:05;;;;;;;;;1.75;1.75;;;;;;;;5052494;28;8989;-87
2023/07/30 01:41:32;;;;;;;;;2.00;1.00;;;;;;;;5054291;28;8847;-89
2023/07/30 01:43:59;;;;;;;;;1.00;1.00;;;;;;;;5054042;28;8848;-88
2023/07/30 01:46:26;;;;;;;;;4.00;1.00;;;;;;;;5052729;28;8901;-87
2023/07/30 01:48:54;;;;;;;;;0.50;0.50;;;;;;;;5053096;28;8851;-88
2023/07/30 01:51:21;;;;;;;;;3.00;2.00;;;;;;;;5053594;28;8843;-84
2023/07/30 01:53:49;;;;;;;;;1.00;1.00;;;;;;;;5060307;28;8974;-86
2023/07/30 01:56:17;;;;;;;;;2.25;2.25;;;;;;;;5059325;28;8855;-89
2023/07/30 01:58:44;;;;;;;;;3.00;3.00;;;;;;;;5058723;28;8850;-85
2023/07/30 02:01:11;;;;;;;;;3.25;2.00;;;;;;;;5053308;28;8807;-87
2023/07/30 02:03:41;;;;;;;;;2.00;2.00;;;;;;;;5053233;28;9729;-88
2023/07/30 02:06:08;;;;;;;;;2.50;1.50;;;;;;;;5053531;28;8899;-84
2023/07/30 02:08:35;;;;;;;;;2.00;2.00;;;;;;;;5053462;28;8963;-88
2023/07/30 02:11:04;;;;;;;;;2.75;2.75;;;;;;;;5053193;28;8897;-90
2023/07/30 02:13:31;;;;;;;;;3.75;2.00;;;;;;;;5053823;28;8894;-91
2023/07/30 02:15:58;;;;;;;;;2.00;2.00;;;;;;;;5053228;28;8962;-91
2023/07/30 02:18:26;;;;;;;;;3.00;3.00;;;;;;;;5053232;28;8884;-87
2023/07/30 02:20:53;;;;;;;;;1.75;1.75;;;;;;;;5052980;28;8845;-87
2023/07/30 02:23:20;;;;;;;;;2.00;2.00;;;;;;;;5053384;28;8873;-87
2023/07/30 02:25:47;;;;;;;;;4.50;3.50;;;;;;;;5053106;28;8885;-88
2023/07/30 02:28:23;;;;;;;;;2.75;2.75;;;;;;;;5052965;28;8971;-87
2023/07/30 02:30:51;;;;;;;;;2.75;2.75;;;;;;;;5057892;28;8901;-85
2023/07/30 02:33:18;;;;;;;;;4.25;2.25;;;;;;;;5058355;28;8877;-88
2023/07/30 02:35:45;;;;;;;;;2.25;2.25;;;;;;;;5058333;28;8954;-88
2023/07/30 02:38:15;;;;;;;;;3.00;3.00;;;;;;;;5053787;28;9824;-86
2023/07/30 02:40:42;;;;;;;;;4.75;2.50;;;;;;;;5052813;28;8835;-83
2023/07/30 02:43:09;;;;;;;;;4.75;4.75;;;;;;;;5052880;28;8858;-86
2023/07/30 02:45:39;;;;;;;;;3.75;3.75;;;;;;;;5052703;28;8847;-84
2023/07/30 02:48:06;;;;;;;;;4.00;3.75;;;;;;;;5053031;28;8932;-90
2023/07/30 02:50:34;;;;;;;;;2.25;0.75;;;;;;;;5053027;28;8878;-89
2023/07/30 02:53:01;;;;;;;;;3.75;2.25;;;;;;;;5052411;28;8855;-89
2023/07/30 02:55:28;;;;;;;;;4.00;2.75;;;;;;;;5052822;28;8890;-89
2023/07/30 02:57:55;;;;;;;;;2.00;1.50;;;;;;;;5052551;28;8973;-87
2023/07/30 03:00:22;;;;;;;;;2.25;2.25;;;;;;;;5051995;28;8970;-87
2023/07/30 03:02:51;;;;;;;;;3.25;3.25;;;;;;;;5051555;28;8881;-86
2023/07/30 03:05:18;;;;;;;;;3.75;1.75;;;;;;;;5052792;28;8856;-87
2023/07/30 03:07:45;;;;;;;;;2.00;2.00;;;;;;;;5058205;28;8953;-87
2023/07/30 03:10:13;;;;;;;;;2.75;2.75;;;;;;;;5059938;28;8973;-85
2023/07/30 03:12:40;;;;;;;;;8.50;3.75;;;;;;;;5058977;28;8973;-89
2023/07/30 03:15:08;;;;;;;;;4.75;3.00;;;;;;;;5058033;28;8961;-86
2023/07/30 03:17:35;;;;;;;;;3.50;3.50;;;;;;;;5055139;28;8962;-89
2023/07/30 03:20:05;;;;;;;;;4.00;4.00;;;;;;;;5056216;28;8850;-88
2023/07/30 03:22:32;;;;;;;;;2.50;2.50;;;;;;;;5056605;28;8889;-87
2023/07/30 03:24:59;;;;;;;;;4.25;3.25;;;;;;;;5054064;28;8965;-90
2023/07/30 03:27:26;;;;;;;;;4.25;3.50;;;;;;;;5053334;28;8850;-89
2023/07/30 03:29:53;;;;;;;;;6.00;5.75;;;;;;;;5052878;28;9618;-86
2023/07/30 03:32:21;;;;;;;;;6.75;4.00;;;;;;;;5052255;28;8780;-89
2023/07/30 03:34:48;;;;;;;;;4.00;4.00;;;;;;;;5051691;28;8867;-84
2023/07/30 03:37:17;;;;;;;;;6.25;5.50;;;;;;;;5051834;28;8859;-83
2023/07/30 03:39:44;;;;;;;;;6.25;5.00;;;;;;;;5051692;28;8977;-84
2023/07/30 03:42:11;;;;;;;;;5.00;5.00;;;;;;;;5052746;28;8839;-88
2023/07/30 03:44:38;;;;;;;;;11.25;7.00;;;;;;;;5053772;28;8985;-82
2023/07/30 03:47:06;;;;;;;;;6.00;4.50;;;;;;;;5054484;28;8889;-83
2023/07/30 03:49:33;;;;;;;;;4.50;4.50;;;;;;;;5054296;28;9279;-83
2023/07/30 03:52:01;;;;;;;;;6.75;5.00;;;;;;;;5052457;28;9708;-86
2023/07/30 03:54:29;;;;;;;;;3.75;3.75;;;;;;;;5050791;28;8873;-86
2023/07/30 03:57:00;;;;;;;;;4.00;4.00;;;;;;;;5052499;28;8853;-86
2023/07/30 03:59:28;;;;;;;;;3.50;3.50;;;;;;;;5053584;28;8889;-83
2023/07/30 04:01:55;;;;;;;;;4.25;4.25;;;;;;;;5050468;28;8838;-85
2023/07/30 04:04:22;;;;;;;;;3.00;3.00;;;;;;;;5050678;28;8863;-85
2023/07/30 04:06:50;;;;;;;;;2.75;2.75;;;;;;;;5050314;28;8880;-83
2023/07/30 04:09:17;;;;;;;;;4.00;4.00;;;;;;;;5050212;28;9602;-84
2023/07/30 04:11:46;;;;;;;;;5.25;5.25;;;;;;;;5050413;28;8847;-83
2023/07/30 04:14:14;;;;;;;;;5.00;3.50;;;;;;;;5050206;28;8924;-87
2023/07/30 04:16:43;;;;;;;;;5.75;5.75;;;;;;;;5050691;28;8851;-84
2023/07/30 04:19:12;;;;;;;;;6.50;2.75;;;;;;;;5050706;28;8855;-84
2023/07/30 04:21:39;;;;;;;;;5.75;4.75;;;;;;;;5052250;28;8843;-83
2023/07/30 04:24:07;;;;;;;;;6.00;4.00;;;;;;;;5054098;28;8851;-83
2023/07/30 04:26:34;;;;;;;;;4.75;3.75;;;;;;;;5052037;28;8885;-84
2023/07/30 04:29:02;;;;;;;;;3.00;3.00;;;;;;;;5051138;28;8859;-83
2023/07/30 04:31:32;;;;;;;;;6.75;5.00;;;;;;;;5049674;28;8784;-84
2023/07/30 04:33:59;;;;;;;;;5.50;4.25;;;;;;;;5049649;28;8859;-84
2023/07/30 04:36:26;;;;;;;;;3.25;2.75;;;;;;;;5049756;28;8875;-83
2023/07/30 04:38:54;;;;;;;;;5.25;3.50;;;;;;;;5050124;28;8970;-84
2023/07/30 04:41:22;;;;;;;;;4.00;4.00;;;;;;;;5049781;28;8867;-86
2023/07/30 04:43:49;;;;;;;;;4.00;4.00;;;;;;;;5049903;28;8858;-83
2023/07/30 04:46:17;;;;;;;;;4.00;2.75;;;;;;;;5049644;28;9002;-84
2023/07/30 04:48:45;;;;;;;;;3.00;3.00;;;;;;;;5050459;28;8966;-86
2023/07/30 04:51:12;;;;;;;;;3.00;3.00;;;;;;;;5050807;28;8854;-87
2023/07/30 04:53:39;;;;;;;;;3.00;3.00;;;;;;;;5051031;28;8962;-86
2023/07/30 04:56:07;;;;;;;;;4.00;4.00;;;;;;;;5051397;28;8867;-88
2023/07/30 04:58:34;;;;;;;;;2.75;2.75;;;;;;;;5052066;28;8962;-89
2023/07/30 05:01:01;;;;;;;;;5.00;3.25;;;;;;;;5053893;28;8856;-89
2023/07/30 05:03:30;;;;;;;;;5.75;3.75;;;;;;;;5054199;28;8846;-85
2023/07/30 05:06:00;;;;;;;;;3.50;2.50;;;;;;;;5054778;28;8990;-89
2023/07/30 05:08:27;;;;;;;;;4.00;4.00;;;;;;;;5051951;28;9002;-91
2023/07/30 05:10:54;;;;;;;;;2.00;2.00;;;;;;;;5049997;28;8967;-91
2023/07/30 05:13:22;;;;;;;;;4.25;2.50;;;;;;;;5049951;28;8970;-88
2023/07/30 05:15:49;;;;;;;;;4.00;2.50;;;;;;;;5049893;28;8881;-89
2023/07/30 05:18:16;;;;;;;;;4.25;3.75;;;;;;;;5049710;28;8867;-82
2023/07/30 05:20:47;;;;;;;;;5.25;4.00;;;;;;;;5049581;28;9746;-81
2023/07/30 05:23:14;;;;;;;;;4.50;3.50;;;;;;;;5049814;28;8851;-79
2023/07/30 05:25:42;;;;;;;;;3.75;3.00;;;;;;;;5056864;28;8859;-82
2023/07/30 05:28:09;;;;;;;;;6.00;2.50;;;;;;;;5052844;28;8877;-78
2023/07/30 05:30:36;;;;;;;;;4.25;3.00;;;;;;;;5052436;28;8783;-80
2023/07/30 05:33:03;;;;;;;;;4.00;2.75;;;;;;;;5051468;28;8974;-90
2023/07/30 05:35:31;;;;;;;;;3.00;1.50;;;;;;;;5054826;28;8885;-88
2023/07/30 05:38:00;;;;;;;;;4.25;4.25;;;;;;;;5060818;28;8877;-78
2023/07/30 05:40:27;;;;;;;;;3.25;3.25;;;;;;;;5060173;28;8893;-90
2023/07/30 05:42:54;;;;;;;;;2.75;2.75;;;;;;;;5059159;28;8965;-91
2023/07/30 05:45:21;;;;;;;;;4.00;2.25;;;;;;;;5054703;28;8948;-93
2023/07/30 05:47:49;;;;;;;;;5.75;4.25;;;;;;;;5055018;28;8846;-80
2023/07/30 05:50:16;;;;;;;;;2.00;2.00;;;;;;;;5053181;28;8859;-86
2023/07/30 05:52:43;;;;;;;;;3.25;3.00;;;;;;;;5053154;28;8973;-86
2023/07/30 05:55:12;;;;;;;;;3.00;3.00;;;;;;;;5052042;28;8922;-86
2023/07/30 05:57:39;;;;;;;;;2.00;2.00;;;;;;;;5054062;28;8861;-86
2023/07/30 06:00:08;;;;;;;;;3.50;2.50;;;;;;;;5054571;28;8878;-85
2023/07/30 06:02:35;;;;;;;;;3.00;3.00;;;;;;;;5055004;28;8851;-88
2023/07/30 06:05:02;;;;;;;;;3.00;3.00;;;;;;;;5052942;28;8866;-86
2023/07/30 06:07:30;;;;;;;;;3.00;3.00;;;;;;;;5053102;28;8851;-87
2023/07/30 06:09:57;;;;;;;;;2.75;2.75;;;;;;;;5052652;28;8877;-83
2023/07/30 06:12:25;;;;;;;;;4.25;2.75;;;;;;;;5053458;28;8969;-80
2023/07/30 06:14:53;;;;;;;;;3.50;3.00;;;;;;;;5057501;28;8859;-87
2023/07/30 06:17:20;;;;;;;;;2.00;2.00;;;;;;;;5055521;28;8851;-83
2023/07/30 06:19:47;;;;;;;;;2.00;2.00;;;;;;;;5053854;28;8966;-83
2023/07/30 06:22:15;;;;;;;;;3.25;1.75;;;;;;;;5052339;28;8867;-83
2023/07/30 06:24:42;;;;;;;;;5.25;4.50;;;;;;;;5052640;28;8839;-84
2023/07/30 06:27:10;;;;;;;;;3.75;3.75;;;;;;;;5052864;28;8855;-79
2023/07/30 06:29:39;;;;;;;;;2.00;1.50;;;;;;;;5053749;28;8862;-86
2023/07/30 06:32:07;;;;;;;;;4.00;4.00;;;;;;;;5055019;28;8884;-85
2023/07/30 06:34:34;;;;;;;;;6.50;4.75;;;;;;;;5056066;28;8967;-85
2023/07/30 06:37:01;;;;;;;;;6.75;3.00;;;;;;;;5054388;28;8981;-85
2023/07/30 06:39:29;;;;;;;;;3.00;3.00;;;;;;;;5054578;28;8867;-86
2023/07/30 06:41:56;;;;;;;;;6.75;3.00;;;;;;;;5053136;28;8974;-83
2023/07/30 06:44:24;;;;;;;;;3.25;3.00;;;;;;;;5051967;28;8948;-81
2023/07/30 06:46:52;;;;;;;;;3.00;3.00;;;;;;;;5052146;28;8847;-83
2023/07/30 06:49:20;;;;;;;;;2.00;2.00;;;;;;;;5052032;28;8861;-83
2023/07/30 06:51:47;;;;;;;;;3.50;2.25;;;;;;;;5055669;28;9654;-81
2023/07/30 06:54:14;;;;;;;;;3.00;3.00;;;;;;;;5052670;28;8846;-86
2023/07/30 06:56:41;;;;;;;;;5.25;2.75;;;;;;;;5051303;28;8863;-80
2023/07/30 06:59:09;;;;;;;;;2.25;1.75;;;;;;;;5051013;28;9029;-78
2023/07/30 07:01:36;;;;;;;;;2.00;2.00;;;;;;;;5050404;28;8918;-80
2023/07/30 07:04:05;;;;;;;;;2.00;2.00;;;;;;;;5050502;28;8855;-79
2023/07/30 07:06:32;;;;;;;;;3.00;1.75;;;;;;;;5051092;28;8886;-79
2023/07/30 07:08:59;;;;;;;;;5.25;1.25;;;;;;;;5050955;28;8870;-77
2023/07/30 07:11:26;;;;;;;;;3.50;1.75;;;;;;;;5050819;28;8866;-79
2023/07/30 07:13:53;;;;;;;;;1.75;1.75;;;;;;;;5050872;28;8904;-78
2023/07/30 07:16:21;;;;;;;;;5.50;2.25;;;;;;;;5050849;28;8873;-78
2023/07/30 07:18:48;;;;;;;;;1.75;1.75;;;;;;;;5051299;28;8847;-81
2023/07/30 07:21:17;;;;;;;;;2.00;2.00;;;;;;;;5050578;28;8985;-80
2023/07/30 07:23:44;;;;;;;;;1.75;1.75;;;;;;;;5050888;28;8859;-77
2023/07/30 07:26:11;;;;;;;;;4.50;2.50;;;;;;;;5050747;28;8873;-79
2023/07/30 07:28:38;;;;;;;;;3.75;1.75;;;;;;;;5051385;28;9699;-79
2023/07/30 07:31:06;;;;;;;;;2.00;1.00;;;;;;;;5050842;28;8763;-81
2023/07/30 07:33:33;;;;;;;;;1.75;1.75;;;;;;;;5052359;28;9648;-81
2023/07/30 07:36:07;;;;;;;;;2.00;1.75;;;;;;;;5052543;28;8839;-78
2023/07/30 07:38:36;;;;;;;;;3.50;2.50;;;;;;;;5053121;28;8873;-78
2023/07/30 07:41:03;;;;;;;;;3.00;3.00;;;;;;;;5050844;28;8886;-77
2023/07/30 07:43:30;;;;;;;;;1.50;1.50;;;;;;;;5049988;28;8985;-77
2023/07/30 07:45:58;;;;;;;;;2.75;2.75;;;;;;;;5050486;28;8831;-78
2023/07/30 07:48:25;;;;;;;;;0.80;0.80;;;;;;;;5050161;28;8847;-75
2023/07/30 07:50:52;;;;;;;;;2.25;2.25;;;;;;;;5050515;28;8850;-77
2023/07/30 07:53:21;;;;;;;;;2.20;2.20;;;;;;;;5049998;28;8859;-79
2023/07/30 07:55:50;;;;;;;;;4.50;2.25;;;;;;;;5050120;28;8867;-79
2023/07/30 07:58:17;;;;;;;;;2.50;1.75;;;;;;;;5049931;28;8998;-81
2023/07/30 08:00:44;;;;;;;;;4.00;2.50;;;;;;;;5049828;28;8866;-83
2023/07/30 08:03:11;;;;;;;;;1.00;1.00;;;;;;;;5051071;28;8984;-78
2023/07/30 08:05:39;;;;;;;;;3.25;2.75;;;;;;;;5051743;28;8977;-79
2023/07/30 08:08:06;;;;;;;;;3.00;1.80;;;;;;;;5053235;28;8877;-82
2023/07/30 08:10:33;;;;;;;;;2.60;2.60;;;;;;;;5053843;28;8970;-78
2023/07/30 08:13:02;;;;;;;;;3.00;2.00;;;;;;;;5053419;28;8985;-79
2023/07/30 08:15:29;;;;;;;;;1.80;1.80;;;;;;;;5052384;28;8855;-81
2023/07/30 08:17:56;;;;;;;;;2.60;2.60;;;;;;;;5051093;28;8985;-78
2023/07/30 08:20:23;;;;;;;;;2.40;2.00;;;;;;;;5050392;28;8893;-79
2023/07/30 08:22:50;;;;;;;;;3.20;2.40;;;;;;;;5049646;28;8905;-80
2023/07/30 08:25:18;;;;;;;;;3.00;2.00;;;;;;;;5049236;28;8892;-80
2023/07/30 08:27:45;;;;;;;;;3.00;2.60;;;;;;;;5049574;28;8870;-80
2023/07/30 08:30:14;;;;;;;;;1.00;1.00;;;;;;;;5048144;28;8877;-82
2023/07/30 08:32:43;;;;;;;;;1.80;1.80;;;;;;;;5049317;28;8982;-82
2023/07/30 08:35:13;;;;;;;;;1.80;1.80;;;;;;;;5049473;28;8897;-82
2023/07/30 08:37:40;;;;;;;;;1.60;1.60;;;;;;;;5049763;28;8902;-81
2023/07/30 08:40:11;;;;;;;;;3.20;1.00;;;;;;;;5049612;28;9445;-81
2023/07/30 08:42:38;;;;;;;;;1.40;1.40;;;;;;;;5050958;28;8862;-80
2023/07/30 08:45:08;;;;;;;;;3.40;3.00;;;;;;;;5049694;28;9633;-78
2023/07/30 08:47:40;;;;;;;;;1.00;1.00;;;;;;;;5049248;28;8883;-78
2023/07/30 08:50:08;;;;;;;;;2.60;2.00;;;;;;;;5049392;28;8850;-83
2023/07/30 08:52:37;;;;;;;;;3.40;1.80;;;;;;;;5049023;28;8855;-77
2023/07/30 08:55:05;;;;;;;;;2.40;2.40;;;;;;;;5049457;28;8851;-79
2023/07/30 08:57:32;;;;;;;;;3.20;1.80;;;;;;;;5049585;28;8885;-80
2023/07/30 09:00:04;;;;;;;;;3.00;2.00;;;;;;;;5048612;28;8866;-81
2023/07/30 09:02:38;;;;;;;;;1.80;1.80;;;;;;;;5049100;28;8812;-79
2023/07/30 09:05:06;;;;;;;;;1.80;1.80;;;;;;;;5048708;28;8953;-80
2023/07/30 09:07:33;;;;;;;;;1.80;1.80;;;;;;;;5049202;28;8928;-82
2023/07/30 09:10:01;;;;;;;;;2.00;2.00;;;;;;;;5049474;28;8904;-79
2023/07/30 09:12:30;;;;;;;;;2.40;2.00;;;;;;;;5050025;28;8859;-75
2023/07/30 09:14:58;;;;;;;;;1.80;1.80;;;;;;;;5049778;28;8981;-80
2023/07/30 09:17:25;;;;;;;;;1.80;1.80;;;;;;;;5049016;28;9010;-80
2023/07/30 09:19:54;;;;;;;;;2.00;2.00;;;;;;;;5049138;28;8874;-81
2023/07/30 09:22:25;;;;;;;;;1.60;1.00;;;;;;;;5049266;28;8969;-81
2023/07/30 09:24:52;;;;;;;;;4.20;2.20;;;;;;;;5049100;28;8869;-81
2023/07/30 09:27:25;;;;;;;;;3.40;1.80;;;;;;;;5048996;28;8889;-81
2023/07/30 09:29:53;;;;;;;;;2.00;2.00;;;;;;;;5049014;28;8871;-80
2023/07/30 09:32:20;;;;;;;;;1.40;1.40;;;;;;;;5048437;28;8772;-81
2023/07/30 09:34:47;;;;;;;;;1.20;1.20;;;;;;;;5049805;28;8850;-80
2023/07/30 09:37:16;;;;;;;;;0.80;0.80;;;;;;;;5049727;28;8870;-81
2023/07/30 09:39:43;;;;;;;;;1.80;1.80;;;;;;;;5050442;28;8843;-85
2023/07/30 09:42:11;;;;;;;;;2.20;2.20;;;;;;;;5050034;28;8866;-82
2023/07/30 09:44:40;;;;;;;;;2.00;1.00;;;;;;;;5049867;28;8875;-83
2023/07/30 09:47:10;;;;;;;;;0.80;0.80;;;;;;;;5049905;28;8862;-81
2023/07/30 09:49:38;;;;;;;;;1.00;1.00;;;;;;;;5049010;28;8994;-82
2023/07/30 09:52:06;;;;;;;;;4.40;1.60;;;;;;;;5049450;28;8854;-80
2023/07/30 09:54:35;;;;;;;;;1.80;1.80;;;;;;;;5053675;28;8851;-82
2023/07/30 09:57:03;;;;;;;;;2.20;2.00;;;;;;;;5049955;28;8859;-79
2023/07/30 09:59:30;;;;;;;;;1.00;1.00;;;;;;;;5048509;28;8977;-81
2023/07/30 10:01:58;;;;;;;;;2.00;1.20;;;;;;;;5048160;28;8790;-83
2023/07/30 10:04:26;;;;;;;;;3.00;2.00;;;;;;;;5048699;28;9006;-81
2023/07/30 10:06:59;;;;;;;;;3.20;1.80;;;;;;;;5049092;28;8862;-82
2023/07/30 10:09:30;;;;;;;;;0.40;0.40;;;;;;;;5049107;28;8859;-81
2023/07/30 10:12:00;;;;;;;;;0.80;0.80;;;;;;;;5050430;28;8924;-82
2023/07/30 10:14:27;;;;;;;;;2.00;0.80;;;;;;;;5052254;28;8849;-80
2023/07/30 10:16:57;;;;;;;;;1.20;0.40;;;;;;;;5052288;28;8977;-80
2023/07/30 10:19:24;;;;;;;;;2.00;1.40;;;;;;;;5052149;28;8858;-81
2023/07/30 10:21:52;;;;;;;;;1.80;1.80;;;;;;;;5051662;28;8890;-79
2023/07/30 10:24:19;;;;;;;;;1.40;1.40;;;;;;;;5052029;28;8870;-79
2023/07/30 10:26:46;;;;;;;;;1.80;1.80;;;;;;;;5051500;28;8835;-77
2023/07/30 10:29:16;;;;;;;;;0.40;0.40;;;;;;;;5051452;28;8881;-77
2023/07/30 10:31:44;;;;;;;;;2.00;2.00;;;;;;;;5051286;28;8787;-79
2023/07/30 10:34:12;;;;;;;;;0.20;0.20;;;;;;;;5051917;28;8839;-78
2023/07/30 10:36:44;;;;;;;;;1.40;1.00;;;;;;;;5051781;28;8858;-77
2023/07/30 10:39:17;;;;;;;;;0.00;0.00;;;;;;;;5051323;28;8879;-77
2023/07/30 10:41:47;;;;;;;;;1.60;1.00;;;;;;;;5051867;28;8893;-76
2023/07/30 10:44:24;;;;;;;;;1.40;1.40;;;;;;;;5051210;28;8908;-80
2023/07/30 10:46:51;;;;;;;;;0.80;0.80;;;;;;;;5051329;28;8867;-78
2023/07/30 10:49:18;;;;;;;;;2.40;1.20;;;;;;;;5051193;28;8867;-79
2023/07/30 10:51:46;;;;;;;;;3.80;1.80;;;;;;;;5052042;28;8861;-77
2023/07/30 10:54:14;;;;;;;;;1.20;1.20;;;;;;;;5052268;28;8989;-79
2023/07/30 10:56:42;;;;;;;;;4.00;2.00;;;;;;;;5051505;28;8936;-78
2023/07/30 10:59:12;;;;;;;;;2.20;2.20;;;;;;;;5051258;28;8863;-78
2023/07/30 11:01:42;;;;;;;;;1.00;1.00;;;;;;;;5050925;28;8770;-79
2023/07/30 11:04:10;;;;;;;;;0.60;0.60;;;;;;;;5051254;28;8865;-79
2023/07/30 11:06:38;;;;;;;;;3.00;0.80;;;;;;;;5051161;28;8977;-89
2023/07/30 11:09:06;;;;;;;;;1.80;1.80;;;;;;;;5051373;28;8865;-81
2023/07/30 11:11:33;;;;;;;;;1.00;1.00;;;;;;;;5051318;28;8839;-80
2023/07/30 11:14:03;;;;;;;;;1.80;1.80;;;;;;;;5050963;28;9781;-81
2023/07/30 11:16:31;;;;;;;;;1.60;1.60;;;;;;;;5051418;28;8843;-81
2023/07/30 11:18:59;;;;;;;;;1.80;1.80;;;;;;;;5051696;28;8847;-78
2023/07/30 11:21:26;;;;;;;;;1.60;1.60;;;;;;;;5052531;28;8854;-81
2023/07/30 11:23:54;;;;;;;;;1.00;1.00;;;;;;;;5052509;28;8866;-83
2023/07/30 11:26:21;;;;;;;;;1.00;1.00;;;;;;;;5052669;28;8973;-80
2023/07/30 11:28:48;;;;;;;;;3.00;1.00;;;;;;;;5051629;28;8878;-79
2023/07/30 11:31:18;;;;;;;;;3.40;1.80;;;;;;;;5050431;28;8826;-79
2023/07/30 11:33:47;;;;;;;;;0.40;0.40;;;;;;;;5051081;28;8855;-79
2023/07/30 11:36:17;;;;;;;;;1.60;1.60;;;;;;;;5050642;28;8851;-80
2023/07/30 11:38:46;;;;;;;;;2.20;1.80;;;;;;;;5050691;28;8839;-79
2023/07/30 11:41:14;;;;;;;;;3.60;1.80;;;;;;;;5050014;28;9021;-81
2023/07/30 11:43:43;;;;;;;;;2.00;2.00;;;;;;;;5050397;28;8978;-79
2023/07/30 11:46:12;;;;;;;;;1.00;1.00;;;;;;;;5050118;28;8843;-80
2023/07/30 11:48:41;;;;;;;;;0.60;0.60;;;;;;;;5050327;28;8863;-78
2023/07/30 11:51:08;;;;;;;;;1.20;1.20;;;;;;;;5050314;28;8877;-79
2023/07/30 11:53:50;;;;;;;;;1.40;1.00;;;;;;;;5050073;28;8885;-81
2023/07/30 11:56:22;;;;;;;;;1.20;1.20;;;;;;;;5050019;28;9456;-80
2023/07/30 11:58:51;;;;;;;;;0.00;0.00;;;;;;;;5050373;28;8843;-81
2023/07/30 12:01:18;;;;;;;;;3.00;1.40;;;;;;;;5050088;28;9320;-81
2023/07/30 12:03:46;;;;;;;;;4.00;1.20;;;;;;;;5053517;28;8855;-82
2023/07/30 12:06:14;;;;;;;;;1.20;1.20;;;;;;;;5053091;28;8827;-79
2023/07/30 12:08:41;;;;;;;;;0.80;0.80;;;;;;;;5050089;28;8997;-83
2023/07/30 12:11:10;;;;;;;;;1.20;1.20;;;;;;;;5049682;28;8889;-81
2023/07/30 12:13:45;;;;;;;;;2.20;2.20;;;;;;;;5049860;28;8862;-82
2023/07/30 12:16:13;;;;;;;;;3.00;1.20;;;;;;;;5030427;28;8854;-83
2023/07/30 12:18:40;;;;;;;;;2.20;1.40;;;;;;;;5029946;28;8873;-81
2023/07/30 12:21:10;;;;;;;;;3.00;1.80;;;;;;;;5029734;28;8842;-80
2023/07/30 12:23:38;;;;;;;;;3.40;2.00;;;;;;;;5030176;28;8861;-83
2023/07/30 12:26:05;;;;;;;;;0.40;0.40;;;;;;;;5029563;28;8857;-82
2023/07/30 12:28:35;;;;;;;;;1.20;1.20;;;;;;;;5029720;28;8988;-83
2023/07/30 12:31:02;;;;;;;;;0.60;0.60;;;;;;;;5029200;28;8817;-81
2023/07/30 12:33:29;;;;;;;;;2.80;2.80;;;;;;;;5029774;28;8888;-81
2023/07/30 12:35:56;;;;;;;;;2.00;2.00;;;;;;;;5029292;28;8849;-79
2023/07/30 12:38:23;;;;;;;;;2.20;0.40;;;;;;;;5030034;28;8939;-79
2023/07/30 12:40:51;;;;;;;;;2.00;0.20;;;;;;;;5029661;28;8876;-81
2023/07/30 12:43:21;;;;;;;;;1.20;1.20;;;;;;;;5029372;28;9494;-81
2023/07/30 12:45:49;;;;;;;;;1.20;1.20;;;;;;;;5029673;28;8885;-83
2023/07/30 12:48:16;;;;;;;;;0.40;0.40;;;;;;;;5029754;28;8837;-81
2023/07/30 12:50:44;;;;;;;;;2.60;1.20;;;;;;;;5029769;28;8885;-80
2023/07/30 12:53:11;;;;;;;;;1.00;1.00;;;;;;;;5030186;28;8866;-83
2023/07/30 12:55:39;;;;;;;;;1.20;0.80;;;;;;;;5030371;28;8893;-82
2023/07/30 12:58:06;;;;;;;;;1.20;0.20;;;;;;;;5031237;28;8857;-86
2023/07/30 13:00:34;;;;;;;;;0.60;0.60;;;;;;;;5031255;28;8754;-85
2023/07/30 13:03:03;;;;;;;;;0.00;0.00;;;;;;;;5030954;28;8849;-81
2023/07/30 13:05:30;;;;;;;;;1.60;1.00;;;;;;;;5030021;28;8846;-81
2023/07/30 13:07:57;;;;;;;;;1.20;1.20;;;;;;;;5029781;28;8837;-82
2023/07/30 13:10:24;;;;;;;;;0.20;0.20;;;;;;;;5029701;28;8869;-83
2023/07/30 13:12:52;;;;;;;;;1.80;1.80;;;;;;;;5029309;28;8849;-79
2023/07/30 13:15:19;;;;;;;;;2.80;0.00;;;;;;;;5042236;28;8851;-82
2023/07/30 13:17:46;;;;;;;;;0.20;0.20;;;;;;;;5049208;28;8876;-77
2023/07/30 13:20:15;;;;;;;;;0.00;0.00;;;;;;;;5048754;28;8885;-78
2023/07/30 13:22:42;;;;;;;;;2.00;0.20;;;;;;;;5048868;28;8859;-80
2023/07/30 13:25:09;;;;;;;;;1.80;1.80;;;;;;;;5048589;28;9694;-76
2023/07/30 13:27:36;;;;;;;;;1.00;1.00;;;;;;;;5048339;28;8885;-77
2023/07/30 13:30:04;;;;;;;;;0.00;0.00;;;;;;;;5048035;28;8867;-79
2023/07/30 13:32:33;;;;;;;;;1.00;1.00;;;;;;;;5048601;28;8851;-79
2023/07/30 13:35:01;;;;;;;;;1.20;1.20;;;;;;;;5048441;28;8946;-78
2023/07/30 13:37:29;;;;;;;;;1.00;1.00;;;;;;;;5049261;28;8857;-78
2023/07/30 13:40:02;;;;;;;;;3.00;1.60;;;;;;;;5049073;28;8921;-78
2023/07/30 13:42:29;;;;;;;;;1.80;0.40;;;;;;;;5048954;28;8855;-78
2023/07/30 13:44:56;;;;;;;;;0.20;0.20;;;;;;;;5048947;28;8889;-77
2023/07/30 13:47:25;;;;;;;;;1.60;1.00;;;;;;;;5050976;28;9016;-77
2023/07/30 13:49:54;;;;;;;;;2.20;1.00;;;;;;;;5052613;28;8854;-77
2023/07/30 13:52:21;;;;;;;;;0.20;0.20;;;;;;;;5052434;28;8871;-78
2023/07/30 13:54:49;;;;;;;;;2.60;1.00;;;;;;;;5052367;28;8870;-79
2023/07/30 13:57:23;;;;;;;;;1.20;1.20;;;;;;;;5052448;28;8889;-79
2023/07/30 13:59:51;;;;;;;;;1.20;1.20;;;;;;;;5052802;28;8855;-78
2023/07/30 14:02:18;;;;;;;;;0.60;0.60;;;;;;;;5051908;28;9424;-79
2023/07/30 14:04:45;;;;;;;;;2.00;1.00;;;;;;;;5052875;28;8869;-79
2023/07/30 14:07:12;;;;;;;;;1.00;1.00;;;;;;;;5055584;28;8847;-79
2023/07/30 14:09:39;;;;;;;;;0.00;0.00;;;;;;;;5055480;28;9005;-79
2023/07/30 14:12:09;;;;;;;;;3.00;1.80;;;;;;;;5052252;28;8851;-79
2023/07/30 14:14:36;;;;;;;;;2.40;1.00;;;;;;;;5052293;28;8839;-79
2023/07/30 14:17:06;;;;;;;;;2.00;0.20;;;;;;;;5052689;28;8869;-79
2023/07/30 14:19:33;;;;;;;;;1.00;1.00;;;;;;;;5052547;28;8854;-80
2023/07/30 14:22:01;;;;;;;;;3.60;1.40;;;;;;;;5052000;28;8890;-79
2023/07/30 14:24:28;;;;;;;;;2.20;1.00;;;;;;;;5052247;28;8986;-78
2023/07/30 14:26:55;;;;;;;;;1.00;1.00;;;;;;;;5052341;28;8890;-79
2023/07/30 14:29:24;;;;;;;;;1.00;1.00;;;;;;;;5052502;28;9637;-78
2023/07/30 14:31:51;;;;;;;;;1.60;1.60;;;;;;;;5052536;28;8825;-78
2023/07/30 14:34:18;;;;;;;;;4.40;2.00;;;;;;;;5053626;28;9740;-79
2023/07/30 14:36:45;;;;;;;;;0.20;0.20;;;;;;;;5054788;28;9001;-78
2023/07/30 14:39:13;;;;;;;;;0.40;0.40;;;;;;;;5055010;28;8855;-78
2023/07/30 14:41:40;;;;;;;;;1.40;1.40;;;;;;;;5054077;28;8879;-78
2023/07/30 14:44:07;;;;;;;;;1.20;1.20;;;;;;;;5052210;28;8859;-78
2023/07/30 14:46:36;;;;;;;;;0.20;0.20;;;;;;;;5051671;28;8859;-78
2023/07/30 14:49:03;;;;;;;;;1.80;1.80;;;;;;;;5051696;28;8847;-78
2023/07/30 14:51:30;;;;;;;;;1.00;1.00;;;;;;;;5051444;28;8883;-78
2023/07/30 14:53:57;;;;;;;;;2.00;2.00;;;;;;;;5051812;28;8881;-78
2023/07/30 14:56:30;;;;;;;;;1.00;1.00;;;;;;;;5051894;28;8854;-82
2023/07/30 14:58:57;;;;;;;;;1.20;1.20;;;;;;;;5050773;28;8943;-77